Time;durP1;ratioP1;P1;durP2;ratioP2;P2;SDS_P1;SDS_P2;PMS_P1;PMS_P2;Temp;Humidity;BMP_temperature;BMP_pressure;BME280_temperature;BME280_humidity;BME280_pressure;Samples;Min_cycle;Max_cycle;Signal;HPM_P1;HPM_P2
2021/04/21 00:01:04;;;;;;;;;;;17.30;53.40;;;;;;5071447;28;19923;-70
2021/04/21 00:03:33;;;;;;;;;;;17.20;53.70;;;;;;5073696;28;19984;-71
2021/04/21 00:06:00;;;;;;;;;;;17.00;54.00;;;;;;5075560;28;20342;-70
2021/04/21 00:08:26;;;;;;;;;;;16.80;54.60;;;;;;5075782;28;20361;-70
2021/04/21 00:10:53;;;;;;;;;;;16.90;54.60;;;;;;5075304;28;20266;-71
2021/04/21 00:13:20;;;;;;;;;;;16.70;54.80;;;;;;5075742;28;19912;-70
2021/04/21 00:15:46;;;;;;;;;;;16.70;54.70;;;;;;5074103;28;20400;-70
2021/04/21 00:18:13;;;;;;;;;;;16.60;54.80;;;;;;5074503;28;19966;-72
2021/04/21 00:20:39;;;;;;;;;;;16.30;55.30;;;;;;5076396;28;20390;-71
2021/04/21 00:23:08;;;;;;;;;;;16.20;55.90;;;;;;5082832;28;19912;-72
2021/04/21 00:25:35;;;;;;;;;;;16.10;56.30;;;;;;5074423;28;19920;-70
2021/04/21 00:28:04;;;;;;;;;;;15.80;57.30;;;;;;5074382;28;19962;-70
2021/04/21 00:30:31;;;;;;;;;;;15.80;57.10;;;;;;5074661;28;19912;-70
2021/04/21 00:32:58;;;;;;;;;;;15.70;57.90;;;;;;5074241;28;19989;-70
2021/04/21 00:35:38;;;;;;;;;;;15.70;57.90;;;;;;5076108;28;19970;-70
2021/04/21 00:38:07;;;;;;;;;;;15.80;57.90;;;;;;5075078;28;20243;-70
2021/04/21 00:40:37;;;;;;;;;;;16.20;56.60;;;;;;5075117;28;20338;-70
2021/04/21 00:43:19;;;;;;;;;;;15.90;56.90;;;;;;5075935;28;19920;-70
2021/04/21 00:45:47;;;;;;;;;;;15.80;57.00;;;;;;5070702;28;19913;-71
2021/04/21 00:48:22;;;;;;;;;;;15.70;58.00;;;;;;5063914;28;20011;-70
2021/04/21 00:51:00;;;;;;;;;;;15.60;57.70;;;;;;5070861;28;19912;-69
2021/04/21 00:53:31;;;;;;;;;;;15.70;57.10;;;;;;5071108;28;19943;-71
2021/04/21 00:56:03;;;;;;;;;;;15.20;57.50;;;;;;5073751;28;19920;-70
2021/04/21 00:58:47;;;;;;;;;;;15.40;58.00;;;;;;5072394;28;19916;-70
2021/04/21 01:01:14;;;;;;;;;;;15.40;57.50;;;;;;5075866;28;19913;-70
2021/04/21 01:03:41;;;;;;;;;;;15.20;57.80;;;;;;5073209;28;19912;-70
2021/04/21 01:06:12;;;;;;;;;;;15.30;58.00;;;;;;5073908;28;19916;-69
2021/04/21 01:08:49;;;;;;;;;;;15.50;58.10;;;;;;5073661;28;19912;-70
2021/04/21 01:11:27;;;;;;;;;;;15.30;58.30;;;;;;5073543;28;19916;-70
2021/04/21 01:13:59;;;;;;;;;;;15.30;58.00;;;;;;5075181;28;19913;-70
2021/04/21 01:16:27;;;;;;;;;;;15.10;58.50;;;;;;5075062;28;19959;-68
2021/04/21 01:18:56;;;;;;;;;;;15.10;59.40;;;;;;5075067;28;19960;-69
2021/04/21 01:21:27;;;;;;;;;;;14.80;59.70;;;;;;5075117;28;19955;-70
2021/04/21 01:24:12;;;;;;;;;;;15.10;58.90;;;;;;5104568;28;20003;-67
2021/04/21 01:26:47;;;;;;;;;;;15.00;58.50;;;;;;5055430;28;19913;-68
2021/04/21 01:29:15;;;;;;;;;;;14.90;59.60;;;;;;5061784;28;19915;-69
2021/04/21 01:31:42;;;;;;;;;;;15.00;58.70;;;;;;5073936;28;19920;-69
2021/04/21 01:34:09;;;;;;;;;;;15.00;59.30;;;;;;5072771;28;19920;-69
2021/04/21 01:36:37;;;;;;;;;;;15.00;59.30;;;;;;5069836;28;20024;-69
2021/04/21 01:39:04;;;;;;;;;;;15.10;58.70;;;;;;5074017;28;19920;-68
2021/04/21 01:41:34;;;;;;;;;;;15.20;58.20;;;;;;5067723;28;20346;-68
2021/04/21 01:44:02;;;;;;;;;;;14.90;59.80;;;;;;5038219;28;19913;-68
2021/04/21 01:46:29;;;;;;;;;;;14.80;59.40;;;;;;5053923;28;19932;-68
2021/04/21 01:49:05;;;;;;;;;;;14.80;60.10;;;;;;5055229;28;19913;-68
2021/04/21 01:51:33;;;;;;;;;;;14.70;60.80;;;;;;5040033;28;19909;-68
2021/04/21 01:54:14;;;;;;;;;;;14.70;60.30;;;;;;5055578;28;19975;-68
2021/04/21 01:56:45;;;;;;;;;;;14.80;60.10;;;;;;5057361;28;20373;-68
2021/04/21 01:59:30;;;;;;;;;;;14.40;61.20;;;;;;5037433;28;19909;-68
2021/04/21 02:02:00;;;;;;;;;;;14.70;61.20;;;;;;5052481;28;19917;-68
2021/04/21 02:04:55;;;;;;;;;;;14.90;59.60;;;;;;5057769;28;20000;-68
2021/04/21 02:07:40;;;;;;;;;;;14.60;60.50;;;;;;4991550;28;19921;-68
2021/04/21 02:10:24;;;;;;;;;;;14.90;59.30;;;;;;5056060;28;19909;-68
2021/04/21 02:12:53;;;;;;;;;;;14.80;60.40;;;;;;5046534;28;19917;-68
2021/04/21 02:15:22;;;;;;;;;;;14.70;59.70;;;;;;5053297;28;20358;-68
2021/04/21 02:18:05;;;;;;;;;;;14.70;60.20;;;;;;5053573;28;19916;-68
2021/04/21 02:20:45;;;;;;;;;;;14.60;60.50;;;;;;5045760;28;19945;-68
2021/04/21 02:23:21;;;;;;;;;;;14.70;61.40;;;;;;5050015;28;19920;-70
2021/04/21 02:25:59;;;;;;;;;;;14.60;60.50;;;;;;5058317;28;20236;-69
2021/04/21 02:28:31;;;;;;;;;;;14.60;60.90;;;;;;5052667;28;19917;-70
2021/04/21 02:31:13;;;;;;;;;;;14.50;61.00;;;;;;5039681;28;19921;-68
2021/04/21 02:33:45;;;;;;;;;;;14.50;60.90;;;;;;5052239;28;19912;-69
2021/04/21 02:36:12;;;;;;;;;;;14.70;60.50;;;;;;5042391;28;19925;-68
2021/04/21 02:38:42;;;;;;;;;;;14.70;61.00;;;;;;5048092;28;19932;-69
2021/04/21 02:41:17;;;;;;;;;;;14.60;60.60;;;;;;5047842;28;20063;-71
2021/04/21 02:43:50;;;;;;;;;;;14.70;60.70;;;;;;5057345;28;19917;-70
2021/04/21 02:46:20;;;;;;;;;;;14.70;61.20;;;;;;5038118;28;19909;-71
2021/04/21 02:48:55;;;;;;;;;;;14.60;61.10;;;;;;5042258;28;20023;-70
2021/04/21 02:51:24;;;;;;;;;;;14.70;61.00;;;;;;5046739;28;19921;-72
2021/04/21 02:54:01;;;;;;;;;;;14.60;60.70;;;;;;5036101;28;19908;-73
2021/04/21 02:56:36;;;;;;;;;;;14.30;61.70;;;;;;5053848;28;20270;-70
2021/04/21 02:59:05;;;;;;;;;;;14.20;62.60;;;;;;5039017;28;19913;-71
2021/04/21 03:01:40;;;;;;;;;;;14.30;62.50;;;;;;5050604;28;19909;-69
2021/04/21 03:04:10;;;;;;;;;;;14.40;61.70;;;;;;5042983;28;19924;-69
2021/04/21 03:06:38;;;;;;;;;;;14.50;61.50;;;;;;5044297;28;19940;-70
2021/04/21 03:09:06;;;;;;;;;;;14.40;61.60;;;;;;5051186;28;20504;-70
2021/04/21 03:11:32;;;;;;;;;;;14.60;61.20;;;;;;5052039;28;20016;-69
2021/04/21 03:14:10;;;;;;;;;;;14.60;60.40;;;;;;5035187;28;20396;-69
2021/04/21 03:16:43;;;;;;;;;;;14.60;60.80;;;;;;5055906;28;19913;-70
2021/04/21 03:19:11;;;;;;;;;;;14.50;61.00;;;;;;5058207;28;19916;-69
2021/04/21 03:21:40;;;;;;;;;;;14.50;61.40;;;;;;5038475;28;19947;-70
2021/04/21 03:24:06;;;;;;;;;;;14.50;61.00;;;;;;5052561;28;19916;-70
2021/04/21 03:26:33;;;;;;;;;;;14.40;61.50;;;;;;5053723;28;19944;-70
2021/04/21 03:29:01;;;;;;;;;;;14.50;61.90;;;;;;5050716;28;19967;-71
2021/04/21 03:31:30;;;;;;;;;;;14.70;61.00;;;;;;5057230;28;20346;-70
2021/04/21 03:33:58;;;;;;;;;;;14.80;60.60;;;;;;5057021;28;19960;-70
2021/04/21 03:36:25;;;;;;;;;;;14.80;60.80;;;;;;5053114;28;19928;-70
2021/04/21 03:38:52;;;;;;;;;;;14.70;60.60;;;;;;5051083;28;19920;-69
2021/04/21 03:41:18;;;;;;;;;;;14.80;61.30;;;;;;5059868;28;19920;-70
2021/04/21 03:43:44;;;;;;;;;;;14.70;61.10;;;;;;5076432;28;20358;-70
2021/04/21 03:46:12;;;;;;;;;;;14.70;61.20;;;;;;5074688;28;20437;-70
2021/04/21 03:48:38;;;;;;;;;;;14.60;61.10;;;;;;5073320;28;19916;-70
2021/04/21 03:51:05;;;;;;;;;;;14.40;61.60;;;;;;5076014;28;19939;-70
2021/04/21 03:53:36;;;;;;;;;;;14.40;62.30;;;;;;5075047;28;19951;-70
2021/04/21 03:56:03;;;;;;;;;;;14.40;62.10;;;;;;5074276;28;20327;-71
2021/04/21 03:58:30;;;;;;;;;;;14.40;62.50;;;;;;5073375;28;20250;-72
2021/04/21 04:01:07;;;;;;;;;;;14.30;62.70;;;;;;5074598;28;19912;-70
2021/04/21 04:03:34;;;;;;;;;;;14.10;62.10;;;;;;5073730;28;19913;-71
2021/04/21 04:06:10;;;;;;;;;;;14.00;63.10;;;;;;5075085;28;19912;-70
2021/04/21 04:08:46;;;;;;;;;;;14.10;63.50;;;;;;5075404;28;19912;-71
2021/04/21 04:11:13;;;;;;;;;;;14.30;63.30;;;;;;5106083;28;20430;-71
2021/04/21 04:13:41;;;;;;;;;;;14.20;63.60;;;;;;5075220;28;20367;-71
2021/04/21 04:16:08;;;;;;;;;;;14.30;63.40;;;;;;5087169;28;19920;-71
2021/04/21 04:18:35;;;;;;;;;;;14.20;63.20;;;;;;5078240;28;19970;-70
2021/04/21 04:21:01;;;;;;;;;;;14.30;63.70;;;;;;5076373;28;19936;-71
2021/04/21 04:23:28;;;;;;;;;;;14.30;63.20;;;;;;5076334;28;19920;-71
2021/04/21 04:25:57;;;;;;;;;;;14.40;63.90;;;;;;5074002;28;19920;-70
2021/04/21 04:28:27;;;;;;;;;;;14.30;63.20;;;;;;5073685;28;19917;-71
2021/04/21 04:30:54;;;;;;;;;;;14.30;63.20;;;;;;5074793;28;20261;-71
2021/04/21 04:33:22;;;;;;;;;;;14.30;63.70;;;;;;5074642;28;19979;-71
2021/04/21 04:35:49;;;;;;;;;;;14.50;63.60;;;;;;5107703;28;19928;-71
2021/04/21 04:38:15;;;;;;;;;;;14.40;63.10;;;;;;5073086;28;19982;-71
2021/04/21 04:40:41;;;;;;;;;;;14.30;63.60;;;;;;5075454;28;19916;-71
2021/04/21 04:43:08;;;;;;;;;;;14.30;63.50;;;;;;5075823;28;19974;-71
2021/04/21 04:45:37;;;;;;;;;;;14.10;64.00;;;;;;5076041;28;19923;-71
2021/04/21 04:48:04;;;;;;;;;;;14.10;64.30;;;;;;5075285;28;20004;-71
2021/04/21 04:50:31;;;;;;;;;;;14.20;64.30;;;;;;5075400;28;19951;-72
2021/04/21 04:52:58;;;;;;;;;;;14.30;63.70;;;;;;5076741;28;19909;-72
2021/04/21 04:55:25;;;;;;;;;;;14.10;63.70;;;;;;5076760;28;20257;-72
2021/04/21 04:57:52;;;;;;;;;;;14.20;64.10;;;;;;5068340;28;19987;-72
2021/04/21 05:00:20;;;;;;;;;;;14.30;64.10;;;;;;5069891;28;19912;-70
2021/04/21 05:02:56;;;;;;;;;;;14.30;63.60;;;;;;5075353;28;19912;-70
2021/04/21 05:05:22;;;;;;;;;;;14.30;64.00;;;;;;5074384;28;19999;-70
2021/04/21 05:07:51;;;;;;;;;;;14.30;63.60;;;;;;5067087;28;19979;-70
2021/04/21 05:10:20;;;;;;;;;;;14.20;64.10;;;;;;5075713;28;19912;-70
2021/04/21 05:12:49;;;;;;;;;;;14.30;63.60;;;;;;5073543;28;20040;-70
2021/04/21 05:15:47;;;;;;;;;;;14.20;63.70;;;;;;5075199;28;19920;-70
2021/04/21 05:18:30;;;;;;;;;;;14.20;64.50;;;;;;5074419;28;20261;-70
2021/04/21 05:21:10;;;;;;;;;;;14.20;64.10;;;;;;5071342;28;19912;-71
2021/04/21 05:23:54;;;;;;;;;;;14.00;64.50;;;;;;5074708;28;19923;-71
2021/04/21 05:26:36;;;;;;;;;;;13.80;65.20;;;;;;5072004;28;20012;-71
2021/04/21 05:29:26;;;;;;;;;;;13.80;64.90;;;;;;5073718;28;20307;-70
2021/04/21 05:32:15;;;;;;;;;;;13.90;64.50;;;;;;5072460;28;19917;-70
2021/04/21 05:34:47;;;;;;;;;;;13.70;64.80;;;;;;5046995;28;20258;-70
2021/04/21 05:37:31;;;;;;;;;;;13.80;64.80;;;;;;5069209;28;19970;-70
2021/04/21 05:40:16;;;;;;;;;;;13.50;65.80;;;;;;5071997;28;20002;-70
2021/04/21 05:42:57;;;;;;;;;;;13.50;65.10;;;;;;5072320;28;19923;-70
2021/04/21 05:45:29;;;;;;;;;;;13.50;65.40;;;;;;5065158;28;19930;-70
2021/04/21 05:48:14;;;;;;;;;;;13.50;65.40;;;;;;5074428;28;19916;-70
2021/04/21 05:50:58;;;;;;;;;;;13.50;64.90;;;;;;5072562;28;19919;-70
2021/04/21 05:53:42;;;;;;;;;;;13.40;65.30;;;;;;5065036;28;19909;-70
2021/04/21 05:56:11;;;;;;;;;;;13.40;65.00;;;;;;5074853;28;19917;-70
2021/04/21 05:59:13;;;;;;;;;;;13.40;65.00;;;;;;5074810;28;19912;-70
2021/04/21 06:01:48;;;;;;;;;;;13.30;66.50;;;;;;5033313;28;19914;-71
2021/04/21 06:04:16;;;;;;;;;;;13.40;65.40;;;;;;5062044;28;19912;-71
2021/04/21 06:06:42;;;;;;;;;;;13.40;65.70;;;;;;5066373;28;20287;-71
2021/04/21 06:09:10;;;;;;;;;;;13.50;65.70;;;;;;5062865;28;20321;-70
2021/04/21 06:11:36;;;;;;;;;;;13.70;65.60;;;;;;5071797;28;20261;-71
2021/04/21 06:14:04;;;;;;;;;;;13.70;65.00;;;;;;5106483;28;19927;-71
2021/04/21 06:16:31;;;;;;;;;;;13.90;65.80;;;;;;5073249;28;19913;-71
2021/04/21 06:19:01;;;;;;;;;;;13.90;64.40;;;;;;5072703;28;19999;-70
2021/04/21 06:21:30;;;;;;;;;;;13.70;64.60;;;;;;5059953;28;20342;-71
2021/04/21 06:23:57;;;;;;;;;;;13.70;65.20;;;;;;5074935;28;20287;-71
2021/04/21 06:26:27;;;;;;;;;;;13.70;65.40;;;;;;5069618;28;19913;-70
2021/04/21 06:29:10;;;;;;;;;;;13.70;65.10;;;;;;5061735;28;20258;-70
2021/04/21 06:31:43;;;;;;;;;;;13.70;65.00;;;;;;5072014;28;19913;-71
2021/04/21 06:34:10;;;;;;;;;;;13.70;65.10;;;;;;5066452;28;20507;-71
2021/04/21 06:36:45;;;;;;;;;;;13.60;64.70;;;;;;5062008;28;20006;-71
2021/04/21 06:39:12;;;;;;;;;;;13.50;65.00;;;;;;5060573;28;19917;-70
2021/04/21 06:41:39;;;;;;;;;;;13.50;65.00;;;;;;5061153;28;19952;-71
2021/04/21 06:44:06;;;;;;;;;;;13.50;65.20;;;;;;5063859;28;20392;-71
2021/04/21 06:46:33;;;;;;;;;;;13.40;65.10;;;;;;5059979;28;19952;-71
2021/04/21 06:49:01;;;;;;;;;;;13.40;65.20;;;;;;5062153;28;19916;-70
2021/04/21 06:51:28;;;;;;;;;;;13.40;65.10;;;;;;5062660;28;19964;-70
2021/04/21 06:53:55;;;;;;;;;;;13.50;65.50;;;;;;5063461;28;20711;-71
2021/04/21 06:56:29;;;;;;;;;;;13.50;66.10;;;;;;5070473;28;20354;-75
2021/04/21 06:58:56;;;;;;;;;;;13.60;65.50;;;;;;5068998;28;19955;-73
2021/04/21 07:01:40;;;;;;;;;;;13.70;65.70;;;;;;5067384;28;19927;-70
2021/04/21 07:04:10;;;;;;;;;;;13.70;65.20;;;;;;5065424;28;19935;-70
2021/04/21 07:06:36;;;;;;;;;;;13.70;65.70;;;;;;5063401;28;19920;-70
2021/04/21 07:09:10;;;;;;;;;;;13.70;66.20;;;;;;5066439;28;19927;-71
2021/04/21 07:11:37;;;;;;;;;;;13.80;65.90;;;;;;5063033;28;20365;-71
2021/04/21 07:14:03;;;;;;;;;;;13.80;65.40;;;;;;5066443;28;19916;-72
2021/04/21 07:16:30;;;;;;;;;;;13.50;65.90;;;;;;5069352;28;20042;-71
2021/04/21 07:19:00;;;;;;;;;;;13.60;66.10;;;;;;5066330;28;20308;-71
2021/04/21 07:21:34;;;;;;;;;;;13.60;65.90;;;;;;5064202;28;19920;-71
2021/04/21 07:24:01;;;;;;;;;;;13.30;66.50;;;;;;5065124;28;20007;-71
2021/04/21 07:26:30;;;;;;;;;;;13.50;67.60;;;;;;5068801;28;19923;-71
2021/04/21 07:28:57;;;;;;;;;;;13.50;66.60;;;;;;5077691;28;19917;-71
2021/04/21 07:31:23;;;;;;;;;;;13.40;67.10;;;;;;5076465;28;20014;-71
2021/04/21 07:33:53;;;;;;;;;;;13.50;67.30;;;;;;5077127;28;19984;-71
2021/04/21 07:36:28;;;;;;;;;;;13.50;67.00;;;;;;5075926;28;20338;-71
2021/04/21 07:39:05;;;;;;;;;;;13.50;67.50;;;;;;5071941;28;19913;-71
2021/04/21 07:41:39;;;;;;;;;;;13.50;67.40;;;;;;5076999;28;19920;-71
2021/04/21 07:44:06;;;;;;;;;;;13.40;67.10;;;;;;5075413;28;19916;-71
2021/04/21 07:46:33;;;;;;;;;;;13.30;68.00;;;;;;5076893;28;20342;-71
2021/04/21 07:49:06;;;;;;;;;;;13.40;67.30;;;;;;5077340;28;19908;-70
2021/04/21 07:51:32;;;;;;;;;;;13.30;67.40;;;;;;5077061;28;19913;-70
2021/04/21 07:54:02;;;;;;;;;;;13.30;67.70;;;;;;5077511;28;19919;-70
2021/04/21 07:56:35;;;;;;;;;;;13.50;67.80;;;;;;5077329;28;20312;-70
2021/04/21 07:59:14;;;;;;;;;;;13.50;67.30;;;;;;5077363;28;20320;-71
2021/04/21 08:01:41;;;;;;;;;;;13.40;67.30;;;;;;5075946;28;19912;-71
2021/04/21 08:04:14;;;;;;;;;;;13.40;66.90;;;;;;5077185;28;19965;-71
2021/04/21 08:06:41;;;;;;;;;;;13.40;67.50;;;;;;5076922;28;19912;-71
2021/04/21 08:09:08;;;;;;;;;;;13.60;67.00;;;;;;5077297;28;20368;-71
2021/04/21 08:11:35;;;;;;;;;;;13.50;67.30;;;;;;5076713;28;20028;-71
2021/04/21 08:14:08;;;;;;;;;;;13.40;66.90;;;;;;5077069;28;19920;-71
2021/04/21 08:16:37;;;;;;;;;;;13.40;67.30;;;;;;5076976;28;20354;-71
2021/04/21 08:19:12;;;;;;;;;;;13.50;67.50;;;;;;5056984;28;19990;-71
2021/04/21 08:21:58;;;;;;;;;;;13.40;68.10;;;;;;5061282;28;19919;-71
2021/04/21 08:24:24;;;;;;;;;;;13.40;67.30;;;;;;5077005;28;19919;-71
2021/04/21 08:26:54;;;;;;;;;;;13.40;67.70;;;;;;5075425;28;20254;-71
2021/04/21 08:29:21;;;;;;;;;;;13.30;67.50;;;;;;5076716;28;19916;-71
2021/04/21 08:31:51;;;;;;;;;;;13.40;68.20;;;;;;5076286;28;19912;-71
2021/04/21 08:34:27;;;;;;;;;;;13.20;67.50;;;;;;5076436;28;19909;-71
2021/04/21 08:36:53;;;;;;;;;;;13.10;68.10;;;;;;5076315;28;19918;-71
2021/04/21 08:39:19;;;;;;;;;;;13.30;67.80;;;;;;5076646;28;19958;-71
2021/04/21 08:41:46;;;;;;;;;;;13.30;67.80;;;;;;5076155;28;19927;-71
2021/04/21 08:44:21;;;;;;;;;;;13.50;67.80;;;;;;5075619;28;19909;-71
2021/04/21 08:46:48;;;;;;;;;;;13.40;68.00;;;;;;5076400;28;20014;-71
2021/04/21 08:49:15;;;;;;;;;;;13.40;67.80;;;;;;5076504;28;19999;-70
2021/04/21 08:51:45;;;;;;;;;;;13.40;68.10;;;;;;5074343;28;19971;-71
2021/04/21 08:54:15;;;;;;;;;;;13.40;68.10;;;;;;5070422;28;19913;-71
2021/04/21 08:56:42;;;;;;;;;;;13.40;68.10;;;;;;5076198;28;19917;-71
2021/04/21 08:59:15;;;;;;;;;;;13.40;68.10;;;;;;5076894;28;20353;-71
2021/04/21 09:01:44;;;;;;;;;;;13.40;68.70;;;;;;5076865;28;19920;-72
2021/04/21 09:04:12;;;;;;;;;;;13.40;68.70;;;;;;5077344;28;20295;-71
2021/04/21 09:06:42;;;;;;;;;;;13.30;68.50;;;;;;5075752;28;19918;-71
2021/04/21 09:09:09;;;;;;;;;;;13.30;68.30;;;;;;5075830;28;19919;-71
2021/04/21 09:11:36;;;;;;;;;;;13.30;68.60;;;;;;5075251;28;19917;-70
2021/04/21 09:14:02;;;;;;;;;;;13.20;68.30;;;;;;5075686;28;19908;-70
2021/04/21 09:16:32;;;;;;;;;;;13.20;69.00;;;;;;5075499;28;20324;-70
2021/04/21 09:18:58;;;;;;;;;;;13.30;68.70;;;;;;5075705;28;19916;-70
2021/04/21 09:21:28;;;;;;;;;;;13.30;69.10;;;;;;5075202;28;20007;-70
2021/04/21 09:24:04;;;;;;;;;;;13.20;68.90;;;;;;5075447;28;19991;-70
2021/04/21 09:26:37;;;;;;;;;;;13.20;69.30;;;;;;5075302;28;19912;-70
2021/04/21 09:29:03;;;;;;;;;;;13.20;68.40;;;;;;5075508;28;20254;-70
2021/04/21 09:31:33;;;;;;;;;;;13.10;68.90;;;;;;5075064;28;19951;-70
2021/04/21 09:34:13;;;;;;;;;;;13.10;69.70;;;;;;5075720;28;19913;-70
2021/04/21 09:36:41;;;;;;;;;;;13.30;69.20;;;;;;5074999;28;20369;-71
2021/04/21 09:39:11;;;;;;;;;;;13.10;69.30;;;;;;5072183;28;20011;-71
2021/04/21 09:41:39;;;;;;;;;;;13.20;68.90;;;;;;5074030;28;19920;-70
2021/04/21 09:44:16;;;;;;;;;;;13.10;68.60;;;;;;5075123;28;19913;-71
2021/04/21 09:46:43;;;;;;;;;;;13.30;69.00;;;;;;5075010;28;19952;-70
2021/04/21 09:49:32;;;;;;;;;;;13.30;69.30;;;;;;5075037;28;19951;-71
2021/04/21 09:52:21;;;;;;;;;;;13.20;69.10;;;;;;5068007;28;19912;-70
2021/04/21 09:54:48;;;;;;;;;;;13.10;68.90;;;;;;5075265;28;19912;-70
2021/04/21 09:57:19;;;;;;;;;;;13.00;69.40;;;;;;5075009;28;19952;-70
2021/04/21 10:00:14;;;;;;;;;;;12.90;69.40;;;;;;5075063;28;20325;-71
2021/04/21 10:02:41;;;;;;;;;;;13.00;69.90;;;;;;5069914;28;19919;-70
2021/04/21 10:05:27;;;;;;;;;;;13.10;69.70;;;;;;5074899;28;20001;-70
2021/04/21 10:08:14;;;;;;;;;;;12.90;70.20;;;;;;5074868;28;19935;-71
2021/04/21 10:10:41;;;;;;;;;;;12.90;70.30;;;;;;5075083;28;19909;-70
2021/04/21 10:13:14;;;;;;;;;;;13.10;69.40;;;;;;5074296;28;19919;-70
2021/04/21 10:15:40;;;;;;;;;;;13.20;69.40;;;;;;5074932;28;19912;-70
2021/04/21 10:18:06;;;;;;;;;;;13.20;69.60;;;;;;5073847;28;20354;-70
2021/04/21 10:20:32;;;;;;;;;;;13.30;69.30;;;;;;5074886;28;19909;-71
2021/04/21 10:22:58;;;;;;;;;;;13.20;68.60;;;;;;5074561;28;19958;-71
2021/04/21 10:25:25;;;;;;;;;;;13.40;68.20;;;;;;5077503;28;19912;-70
2021/04/21 10:27:52;;;;;;;;;;;13.30;68.30;;;;;;5079017;28;19943;-70
2021/04/21 10:30:19;;;;;;;;;;;13.20;68.60;;;;;;5078935;28;19921;-70
2021/04/21 10:32:45;;;;;;;;;;;13.10;68.80;;;;;;5078434;28;19924;-72
2021/04/21 10:35:11;;;;;;;;;;;13.20;68.70;;;;;;5078855;28;19923;-70
2021/04/21 10:37:39;;;;;;;;;;;13.30;68.40;;;;;;5078747;28;19948;-70
2021/04/21 10:40:06;;;;;;;;;;;13.30;68.40;;;;;;5078584;28;19916;-70
2021/04/21 10:42:49;;;;;;;;;;;13.20;68.30;;;;;;5070585;28;20374;-70
2021/04/21 10:45:20;;;;;;;;;;;13.20;68.40;;;;;;5059358;28;19916;-70
2021/04/21 10:50:43;;;;;;;;;;;13.20;68.70;;;;;;5038863;28;19924;-71
2021/04/21 10:53:44;;;;;;;;;;;13.20;68.60;;;;;;5039420;28;19996;-70
2021/04/21 10:56:22;;;;;;;;;;;13.20;68.60;;;;;;5073054;28;20352;-72
2021/04/21 10:58:49;;;;;;;;;;;13.20;69.00;;;;;;5060963;28;19913;-72
2021/04/21 11:01:26;;;;;;;;;;;13.00;68.60;;;;;;5078522;28;19963;-71
2021/04/21 11:03:52;;;;;;;;;;;12.90;68.90;;;;;;5066870;28;19912;-72
2021/04/21 11:06:51;;;;;;;;;;;13.00;69.40;;;;;;5059437;28;20004;-72
2021/04/21 11:09:17;;;;;;;;;;;13.10;69.00;;;;;;5035698;28;19913;-71
2021/04/21 11:11:46;;;;;;;;;;;13.10;69.30;;;;;;5058058;28;19916;-71
2021/04/21 11:14:16;;;;;;;;;;;13.10;68.90;;;;;;5054709;28;20346;-71
2021/04/21 11:16:43;;;;;;;;;;;12.90;69.30;;;;;;5078073;28;19924;-71
2021/04/21 11:19:18;;;;;;;;;;;13.00;69.90;;;;;;5071146;28;20254;-71
2021/04/21 11:21:48;;;;;;;;;;;12.90;69.60;;;;;;5058040;28;19912;-71
2021/04/21 11:24:15;;;;;;;;;;;13.00;69.90;;;;;;5071648;28;19913;-71
2021/04/21 11:26:41;;;;;;;;;;;12.90;69.40;;;;;;5077768;28;19909;-70
2021/04/21 11:29:08;;;;;;;;;;;13.00;69.60;;;;;;5072129;28;19913;-70
2021/04/21 11:31:40;;;;;;;;;;;12.80;69.90;;;;;;5057632;28;19995;-72
2021/04/21 11:34:24;;;;;;;;;;;12.90;70.10;;;;;;5070533;28;20029;-70
2021/04/21 11:37:10;;;;;;;;;;;12.90;69.40;;;;;;5077374;28;20368;-70
2021/04/21 11:39:48;;;;;;;;;;;12.80;69.80;;;;;;5073701;28;19919;-70
2021/04/21 11:42:24;;;;;;;;;;;12.90;70.30;;;;;;5065040;28;19924;-70
2021/04/21 11:44:50;;;;;;;;;;;13.00;69.70;;;;;;5077030;28;20419;-70
2021/04/21 11:47:35;;;;;;;;;;;13.00;70.20;;;;;;5077939;28;19962;-70
2021/04/21 11:50:01;;;;;;;;;;;13.00;69.70;;;;;;5077456;28;19912;-70
2021/04/21 11:52:40;;;;;;;;;;;12.70;69.80;;;;;;5077400;28;19920;-70
2021/04/21 11:55:07;;;;;;;;;;;12.90;70.00;;;;;;5076246;28;19970;-70
2021/04/21 11:57:36;;;;;;;;;;;12.80;69.80;;;;;;5077018;28;19913;-70
2021/04/21 12:00:06;;;;;;;;;;;12.90;70.50;;;;;;5077238;28;19916;-70
2021/04/21 12:02:35;;;;;;;;;;;12.90;70.30;;;;;;5077310;28;19947;-70
2021/04/21 12:05:02;;;;;;;;;;;13.00;69.80;;;;;;5076797;28;19912;-70
2021/04/21 12:07:28;;;;;;;;;;;13.00;70.30;;;;;;5076902;28;19912;-70
2021/04/21 12:09:54;;;;;;;;;;;12.90;70.00;;;;;;5077193;28;19948;-70
2021/04/21 12:12:24;;;;;;;;;;;13.00;70.10;;;;;;5075968;28;19945;-70
2021/04/21 12:15:02;;;;;;;;;;;13.00;70.00;;;;;;5075741;28;20300;-70
2021/04/21 12:17:28;;;;;;;;;;;13.00;70.20;;;;;;5077052;28;19908;-70
2021/04/21 12:19:54;;;;;;;;;;;12.90;69.80;;;;;;5076679;28;20219;-70
2021/04/21 12:22:21;;;;;;;;;;;12.80;70.20;;;;;;5076861;28;20261;-70
2021/04/21 12:24:47;;;;;;;;;;;13.00;70.30;;;;;;5076667;28;19935;-70
2021/04/21 12:27:29;;;;;;;;;;;13.00;69.50;;;;;;5076891;28;19908;-70
2021/04/21 12:29:55;;;;;;;;;;;12.90;69.70;;;;;;5076574;28;19977;-70
2021/04/21 12:32:27;;;;;;;;;;;12.80;70.50;;;;;;5076380;28;20345;-71
2021/04/21 12:34:53;;;;;;;;;;;12.70;70.00;;;;;;5076047;28;19923;-70
2021/04/21 12:37:22;;;;;;;;;;;12.80;70.50;;;;;;5075386;28;19908;-71
2021/04/21 12:39:49;;;;;;;;;;;12.70;70.40;;;;;;5076299;28;19920;-71
2021/04/21 12:42:19;;;;;;;;;;;12.90;70.30;;;;;;5076398;28;19920;-70
2021/04/21 12:44:46;;;;;;;;;;;12.90;70.00;;;;;;5060230;28;20102;-70
2021/04/21 12:47:12;;;;;;;;;;;13.00;69.70;;;;;;5070002;28;19912;-70
2021/04/21 12:49:42;;;;;;;;;;;13.10;69.50;;;;;;5076422;28;20238;-71
2021/04/21 12:52:15;;;;;;;;;;;13.10;69.30;;;;;;5076255;28;19919;-71
2021/04/21 12:54:43;;;;;;;;;;;13.10;69.80;;;;;;5053601;28;19917;-70
2021/04/21 12:57:10;;;;;;;;;;;13.10;69.60;;;;;;5063310;28;19913;-70
2021/04/21 12:59:39;;;;;;;;;;;13.10;69.70;;;;;;5044059;28;20008;-70
2021/04/21 13:02:05;;;;;;;;;;;13.10;69.80;;;;;;5076575;28;20004;-71
2021/04/21 13:04:39;;;;;;;;;;;13.20;70.10;;;;;;5072978;28;19913;-71
2021/04/21 13:07:15;;;;;;;;;;;13.30;69.90;;;;;;5069164;28;19962;-72
2021/04/21 13:09:41;;;;;;;;;;;13.30;69.60;;;;;;5058564;28;19919;-71
2021/04/21 13:12:11;;;;;;;;;;;13.40;69.20;;;;;;5075739;28;20315;-70
2021/04/21 13:14:41;;;;;;;;;;;13.30;69.10;;;;;;5072999;28;19927;-70
2021/04/21 13:17:08;;;;;;;;;;;13.20;69.40;;;;;;5066096;28;19952;-70
2021/04/21 13:19:35;;;;;;;;;;;13.30;69.40;;;;;;5055539;28;19959;-70
2021/04/21 13:22:08;;;;;;;;;;;13.20;69.30;;;;;;5056550;28;20323;-70
2021/04/21 13:24:39;;;;;;;;;;;13.20;69.60;;;;;;5055343;28;19920;-70
2021/04/21 13:27:05;;;;;;;;;;;13.30;69.50;;;;;;5063414;28;20274;-70
2021/04/21 13:29:32;;;;;;;;;;;13.30;69.30;;;;;;5073574;28;19942;-70
2021/04/21 13:32:05;;;;;;;;;;;13.20;69.20;;;;;;5075355;28;19908;-70
2021/04/21 13:34:31;;;;;;;;;;;13.30;69.60;;;;;;5075215;28;20250;-70
2021/04/21 13:36:57;;;;;;;;;;;13.00;69.70;;;;;;5067928;28;20254;-70
2021/04/21 13:39:23;;;;;;;;;;;13.20;69.30;;;;;;5055174;28;20301;-71
2021/04/21 13:41:49;;;;;;;;;;;13.20;69.60;;;;;;5064105;28;19987;-70
2021/04/21 13:44:15;;;;;;;;;;;13.20;69.20;;;;;;5074970;28;19916;-70
2021/04/21 13:46:41;;;;;;;;;;;13.00;69.30;;;;;;5074720;28;20331;-70
2021/04/21 13:49:07;;;;;;;;;;;13.00;69.90;;;;;;5073926;28;19916;-70
2021/04/21 13:51:33;;;;;;;;;;;12.90;69.80;;;;;;5075140;28;19908;-70
2021/04/21 13:53:59;;;;;;;;;;;13.20;69.30;;;;;;5074757;28;20254;-71
2021/04/21 13:56:25;;;;;;;;;;;13.30;69.70;;;;;;5073536;28;19928;-70
2021/04/21 13:58:51;;;;;;;;;;;13.20;68.70;;;;;;5073867;28;19966;-71
2021/04/21 14:01:17;;;;;;;;;;;13.10;69.00;;;;;;5073985;28;19913;-71
2021/04/21 14:03:43;;;;;;;;;;;13.10;69.30;;;;;;5074891;28;20024;-71
2021/04/21 14:06:09;;;;;;;;;;;13.30;69.30;;;;;;5074137;28;19923;-71
2021/04/21 14:08:35;;;;;;;;;;;13.20;69.20;;;;;;5074341;28;19962;-71
2021/04/21 14:11:01;;;;;;;;;;;13.20;69.50;;;;;;5073766;28;20327;-71
2021/04/21 14:13:27;;;;;;;;;;;13.30;69.90;;;;;;5075095;28;19908;-71
2021/04/21 14:15:53;;;;;;;;;;;13.30;69.40;;;;;;5074273;28;19925;-70
2021/04/21 14:18:19;;;;;;;;;;;13.30;69.60;;;;;;5075087;28;19908;-71
2021/04/21 14:20:45;;;;;;;;;;;13.20;70.30;;;;;;5107684;28;19912;-71
2021/04/21 14:23:11;;;;;;;;;;;13.30;70.10;;;;;;5074062;28;20053;-71
2021/04/21 14:25:37;;;;;;;;;;;13.40;69.80;;;;;;5074285;28;20006;-70
2021/04/21 14:28:04;;;;;;;;;;;13.40;69.80;;;;;;5072882;28;20013;-71
2021/04/21 14:30:30;;;;;;;;;;;13.50;69.30;;;;;;5074854;28;20392;-71
2021/04/21 14:32:56;;;;;;;;;;;13.50;68.80;;;;;;5074845;28;19952;-71
2021/04/21 14:35:22;;;;;;;;;;;13.60;69.40;;;;;;5074601;28;20005;-71
2021/04/21 14:37:48;;;;;;;;;;;13.60;70.10;;;;;;5074687;28;19913;-70
2021/04/21 14:40:14;;;;;;;;;;;13.60;69.40;;;;;;5074869;28;19915;-71